sensor_id;sensor_type;location;lat;lon;timestamp;pressure;altitude;pressure_sealevel;temperature
42197;BMP280;27866;48.146;17.098;2023-08-20T00:03:12;99915.72;;;26.67
42197;BMP280;27866;48.146;17.098;2023-08-20T00:07:25;99923.47;;;26.62
42197;BMP280;27866;48.146;17.098;2023-08-20T00:11:36;99913.25;;;26.59
42197;BMP280;27866;48.146;17.098;2023-08-20T00:15:48;99914.47;;;26.63
42197;BMP280;27866;48.146;17.098;2023-08-20T00:20:00;99912.25;;;26.66
42197;BMP280;27866;48.146;17.098;2023-08-20T00:24:13;99907.75;;;26.67
42197;BMP280;27866;48.146;17.098;2023-08-20T00:28:24;99910.16;;;26.62
42197;BMP280;27866;48.146;17.098;2023-08-20T00:32:36;99908.34;;;26.62
42197;BMP280;27866;48.146;17.098;2023-08-20T00:36:47;99910.38;;;26.60
42197;BMP280;27866;48.146;17.098;2023-08-20T00:40:59;99910.38;;;26.60
42197;BMP280;27866;48.146;17.098;2023-08-20T00:45:10;99913.03;;;26.60
42197;BMP280;27866;48.146;17.098;2023-08-20T00:49:21;99902.63;;;26.59
42197;BMP280;27866;48.146;17.098;2023-08-20T00:53:33;99909.13;;;26.57
42197;BMP280;27866;48.146;17.098;2023-08-20T00:57:44;99919.81;;;26.63
42197;BMP280;27866;48.146;17.098;2023-08-20T01:01:55;99922.88;;;26.66
42197;BMP280;27866;48.146;17.098;2023-08-20T01:11:01;99935.72;;;26.57
42197;BMP280;27866;48.146;17.098;2023-08-20T01:15:13;99937.94;;;26.53
42197;BMP280;27866;48.146;17.098;2023-08-20T01:19:25;99931.19;;;26.44
42197;BMP280;27866;48.146;17.098;2023-08-20T01:23:56;99930.94;;;26.40
42197;BMP280;27866;48.146;17.098;2023-08-20T01:28:25;99945.00;;;26.34
42197;BMP280;27866;48.146;17.098;2023-08-20T01:32:37;99938.88;;;26.27
42197;BMP280;27866;48.146;17.098;2023-08-20T01:36:52;99939.22;;;26.24
42197;BMP280;27866;48.146;17.098;2023-08-20T01:41:04;99948.22;;;26.23
42197;BMP280;27866;48.146;17.098;2023-08-20T01:45:17;99952.91;;;26.21
42197;BMP280;27866;48.146;17.098;2023-08-20T01:49:29;99951.25;;;26.20
42197;BMP280;27866;48.146;17.098;2023-08-20T01:53:40;99962.44;;;26.10
42197;BMP280;27866;48.146;17.098;2023-08-20T01:57:52;99958.31;;;26.07
42197;BMP280;27866;48.146;17.098;2023-08-20T02:02:03;99954.25;;;26.05
42197;BMP280;27866;48.146;17.098;2023-08-20T02:06:15;99959.09;;;25.95
42197;BMP280;27866;48.146;17.098;2023-08-20T02:10:30;99956.56;;;25.87
42197;BMP280;27866;48.146;17.098;2023-08-20T02:14:42;99959.38;;;25.80
42197;BMP280;27866;48.146;17.098;2023-08-20T02:18:54;99958.75;;;25.78
42197;BMP280;27866;48.146;17.098;2023-08-20T02:23:05;99959.72;;;25.71
42197;BMP280;27866;48.146;17.098;2023-08-20T02:27:16;99966.22;;;25.68
42197;BMP280;27866;48.146;17.098;2023-08-20T02:31:28;99957.59;;;25.66
42197;BMP280;27866;48.146;17.098;2023-08-20T02:35:40;99946.16;;;25.66
42197;BMP280;27866;48.146;17.098;2023-08-20T02:39:51;99948.03;;;25.65
42197;BMP280;27866;48.146;17.098;2023-08-20T02:44:03;99953.50;;;25.64
42197;BMP280;27866;48.146;17.098;2023-08-20T02:48:15;99959.41;;;25.59
42197;BMP280;27866;48.146;17.098;2023-08-20T02:52:26;99958.19;;;25.62
42197;BMP280;27866;48.146;17.098;2023-08-20T02:56:37;99959.41;;;25.59
42197;BMP280;27866;48.146;17.098;2023-08-20T03:00:49;99958.16;;;25.56
42197;BMP280;27866;48.146;17.098;2023-08-20T03:05:00;99955.69;;;25.54
42197;BMP280;27866;48.146;17.098;2023-08-20T03:09:11;99962.41;;;25.50
42197;BMP280;27866;48.146;17.098;2023-08-20T03:13:22;99975.03;;;25.48
42197;BMP280;27866;48.146;17.098;2023-08-20T03:17:33;99976.22;;;25.46
42197;BMP280;27866;48.146;17.098;2023-08-20T03:21:45;99971.47;;;25.41
42197;BMP280;27866;48.146;17.098;2023-08-20T03:25:59;99968.41;;;25.38
42197;BMP280;27866;48.146;17.098;2023-08-20T03:30:11;99966.16;;;25.35
42197;BMP280;27866;48.146;17.098;2023-08-20T03:34:22;99972.44;;;25.34
42197;BMP280;27866;48.146;17.098;2023-08-20T03:38:33;99981.84;;;25.37
42197;BMP280;27866;48.146;17.098;2023-08-20T03:42:44;99978.56;;;25.35
42197;BMP280;27866;48.146;17.098;2023-08-20T03:46:56;99976.56;;;25.37
42197;BMP280;27866;48.146;17.098;2023-08-20T03:51:07;99971.63;;;25.34
42197;BMP280;27866;48.146;17.098;2023-08-20T03:55:18;99976.47;;;25.30
42197;BMP280;27866;48.146;17.098;2023-08-20T03:59:30;99976.47;;;25.30
42197;BMP280;27866;48.146;17.098;2023-08-20T04:03:42;99971.56;;;25.27
42197;BMP280;27866;48.146;17.098;2023-08-20T04:07:53;99971.56;;;25.27
42197;BMP280;27866;48.146;17.098;2023-08-20T04:12:07;99976.25;;;25.26
42197;BMP280;27866;48.146;17.098;2023-08-20T04:16:21;99980.91;;;25.24
42197;BMP280;27866;48.146;17.098;2023-08-20T04:20:33;99982.19;;;25.27
42197;BMP280;27866;48.146;17.098;2023-08-20T04:24:47;99990.00;;;25.35
42197;BMP280;27866;48.146;17.098;2023-08-20T04:28:59;99996.19;;;25.42
42197;BMP280;27866;48.146;17.098;2023-08-20T04:33:11;100002.34;;;25.49
42197;BMP280;27866;48.146;17.098;2023-08-20T04:37:24;100016.09;;;25.58
42197;BMP280;27866;48.146;17.098;2023-08-20T04:41:37;100028.72;;;25.71
42197;BMP280;27866;48.146;17.098;2023-08-20T04:45:49;100013.28;;;25.80
42197;BMP280;27866;48.146;17.098;2023-08-20T04:50:01;100010.13;;;25.97
42197;BMP280;27866;48.146;17.098;2023-08-20T04:54:14;100003.28;;;26.09
42197;BMP280;27866;48.146;17.098;2023-08-20T04:58:25;100007.41;;;26.17
42197;BMP280;27866;48.146;17.098;2023-08-20T05:02:37;100023.84;;;26.27
42197;BMP280;27866;48.146;17.098;2023-08-20T05:06:48;100018.22;;;26.43
42197;BMP280;27866;48.146;17.098;2023-08-20T05:11:00;100018.91;;;26.57
42197;BMP280;27866;48.146;17.098;2023-08-20T05:15:12;100008.13;;;26.71
42197;BMP280;27866;48.146;17.098;2023-08-20T05:19:23;100004.69;;;26.83
42197;BMP280;27866;48.146;17.098;2023-08-20T05:23:35;100009.91;;;26.97
42197;BMP280;27866;48.146;17.098;2023-08-20T05:27:46;100011.97;;;27.08
42197;BMP280;27866;48.146;17.098;2023-08-20T05:31:57;100010.34;;;27.19
42197;BMP280;27866;48.146;17.098;2023-08-20T05:36:08;100013.84;;;27.32
42197;BMP280;27866;48.146;17.098;2023-08-20T05:40:20;100020.66;;;27.41
42197;BMP280;27866;48.146;17.098;2023-08-20T05:44:32;100025.56;;;27.57
42197;BMP280;27866;48.146;17.098;2023-08-20T05:48:43;100034.59;;;27.68
42197;BMP280;27866;48.146;17.098;2023-08-20T05:52:55;100034.19;;;27.84
42197;BMP280;27866;48.146;17.098;2023-08-20T05:57:07;100026.00;;;27.91
42197;BMP280;27866;48.146;17.098;2023-08-20T06:01:18;100037.50;;;28.11
42197;BMP280;27866;48.146;17.098;2023-08-20T06:05:30;100040.94;;;28.11
42197;BMP280;27866;48.146;17.098;2023-08-20T06:09:41;100048.13;;;28.23
42197;BMP280;27866;48.146;17.098;2023-08-20T06:13:52;100049.56;;;28.26
42197;BMP280;27866;48.146;17.098;2023-08-20T06:18:03;100052.41;;;28.37
42197;BMP280;27866;48.146;17.098;2023-08-20T06:22:15;100056.72;;;28.32
42197;BMP280;27866;48.146;17.098;2023-08-20T06:26:26;100058.53;;;28.44
42197;BMP280;27866;48.146;17.098;2023-08-20T06:30:37;100053.00;;;28.39
42197;BMP280;27866;48.146;17.098;2023-08-20T06:34:48;100063.25;;;28.42
42197;BMP280;27866;48.146;17.098;2023-08-20T06:39:00;100066.50;;;28.69
42197;BMP280;27866;48.146;17.098;2023-08-20T06:43:11;100053.88;;;32.33
42197;BMP280;27866;48.146;17.098;2023-08-20T06:47:22;100053.88;;;32.33
42197;BMP280;27866;48.146;17.098;2023-08-20T06:51:33;100063.88;;;32.59
42197;BMP280;27866;48.146;17.098;2023-08-20T06:55:44;100063.56;;;32.34
42197;BMP280;27866;48.146;17.098;2023-08-20T06:59:56;100061.97;;;32.04
42197;BMP280;27866;48.146;17.098;2023-08-20T07:04:07;100061.88;;;31.31
42197;BMP280;27866;48.146;17.098;2023-08-20T07:08:18;100060.19;;;31.19
42197;BMP280;27866;48.146;17.098;2023-08-20T07:12:29;100068.34;;;31.41
42197;BMP280;27866;48.146;17.098;2023-08-20T07:16:41;100056.84;;;31.92
42197;BMP280;27866;48.146;17.098;2023-08-20T07:20:52;100062.84;;;30.91
42197;BMP280;27866;48.146;17.098;2023-08-20T07:25:03;100075.09;;;30.81
42197;BMP280;27866;48.146;17.098;2023-08-20T07:29:15;100063.53;;;31.15
42197;BMP280;27866;48.146;17.098;2023-08-20T07:33:26;100058.41;;;31.13
42197;BMP280;27866;48.146;17.098;2023-08-20T07:37:37;100060.63;;;30.99
42197;BMP280;27866;48.146;17.098;2023-08-20T07:41:48;100063.97;;;31.12
42197;BMP280;27866;48.146;17.098;2023-08-20T07:45:59;100061.25;;;31.01
42197;BMP280;27866;48.146;17.098;2023-08-20T07:50:10;100054.75;;;31.08
42197;BMP280;27866;48.146;17.098;2023-08-20T07:54:22;100058.44;;;30.96
42197;BMP280;27866;48.146;17.098;2023-08-20T07:58:33;100044.59;;;30.99
42197;BMP280;27866;48.146;17.098;2023-08-20T08:02:44;100046.00;;;31.01
42197;BMP280;27866;48.146;17.098;2023-08-20T08:06:55;100047.09;;;31.29
42197;BMP280;27866;48.146;17.098;2023-08-20T08:11:06;100046.44;;;31.44
42197;BMP280;27866;48.146;17.098;2023-08-20T08:15:18;100049.75;;;31.57
42197;BMP280;27866;48.146;17.098;2023-08-20T08:19:29;100065.78;;;31.46
42197;BMP280;27866;48.146;17.098;2023-08-20T08:23:40;100063.34;;;31.45
42197;BMP280;27866;48.146;17.098;2023-08-20T08:27:51;100048.81;;;31.52
42197;BMP280;27866;48.146;17.098;2023-08-20T08:32:03;100047.63;;;31.88
42197;BMP280;27866;48.146;17.098;2023-08-20T08:36:14;100048.00;;;32.02
42197;BMP280;27866;48.146;17.098;2023-08-20T08:40:29;100054.78;;;32.38
42197;BMP280;27866;48.146;17.098;2023-08-20T08:44:41;100043.16;;;35.49
42197;BMP280;27866;48.146;17.098;2023-08-20T08:48:52;100049.34;;;34.87
42197;BMP280;27866;48.146;17.098;2023-08-20T08:53:05;100054.03;;;34.75
42197;BMP280;27866;48.146;17.098;2023-08-20T08:57:17;100061.53;;;34.52
42197;BMP280;27866;48.146;17.098;2023-08-20T09:01:29;100047.56;;;34.39
42197;BMP280;27866;48.146;17.098;2023-08-20T09:05:58;100061.22;;;34.17
42197;BMP280;27866;48.146;17.098;2023-08-20T09:10:11;100059.72;;;34.58
42197;BMP280;27866;48.146;17.098;2023-08-20T09:14:30;100072.31;;;34.73
42197;BMP280;27866;48.146;17.098;2023-08-20T09:18:44;100060.78;;;34.57
42197;BMP280;27866;48.146;17.098;2023-08-20T09:22:56;100070.16;;;34.38
42197;BMP280;27866;48.146;17.098;2023-08-20T09:27:07;100058.34;;;34.55
42197;BMP280;27866;48.146;17.098;2023-08-20T09:31:18;100065.59;;;35.12
42197;BMP280;27866;48.146;17.098;2023-08-20T09:35:29;100063.97;;;35.32
42197;BMP280;27866;48.146;17.098;2023-08-20T09:39:41;100063.03;;;35.68
42197;BMP280;27866;48.146;17.098;2023-08-20T09:43:57;100055.22;;;35.97
42197;BMP280;27866;48.146;17.098;2023-08-20T09:48:10;100055.22;;;35.97
42197;BMP280;27866;48.146;17.098;2023-08-20T09:52:40;100064.56;;;37.46
42197;BMP280;27866;48.146;17.098;2023-08-20T09:57:00;100044.94;;;38.23
42197;BMP280;27866;48.146;17.098;2023-08-20T10:01:12;100045.16;;;39.36
42197;BMP280;27866;48.146;17.098;2023-08-20T10:05:24;100039.69;;;41.43
42197;BMP280;27866;48.146;17.098;2023-08-20T10:09:38;100056.53;;;43.78
42197;BMP280;27866;48.146;17.098;2023-08-20T10:13:50;100053.53;;;45.57
42197;BMP280;27866;48.146;17.098;2023-08-20T10:18:01;100053.66;;;47.03
42197;BMP280;27866;48.146;17.098;2023-08-20T10:22:13;100053.66;;;47.03
42197;BMP280;27866;48.146;17.098;2023-08-20T10:26:24;100041.25;;;51.20
42197;BMP280;27866;48.146;17.098;2023-08-20T10:30:36;100049.25;;;51.92
42197;BMP280;27866;48.146;17.098;2023-08-20T10:34:51;100028.88;;;51.81
42197;BMP280;27866;48.146;17.098;2023-08-20T10:39:05;100023.34;;;52.36
42197;BMP280;27866;48.146;17.098;2023-08-20T10:43:46;100023.81;;;54.07
42197;BMP280;27866;48.146;17.098;2023-08-20T10:47:59;100013.56;;;54.11
42197;BMP280;27866;48.146;17.098;2023-08-20T10:52:10;100015.25;;;54.58
42197;BMP280;27866;48.146;17.098;2023-08-20T10:56:21;100004.88;;;54.16
42197;BMP280;27866;48.146;17.098;2023-08-20T11:00:32;100009.41;;;54.31
42197;BMP280;27866;48.146;17.098;2023-08-20T11:04:44;100009.38;;;53.67
42197;BMP280;27866;48.146;17.098;2023-08-20T11:08:55;99998.41;;;54.02
42197;BMP280;27866;48.146;17.098;2023-08-20T11:13:08;99993.09;;;54.26
42197;BMP280;27866;48.146;17.098;2023-08-20T11:17:19;99986.56;;;54.08
42197;BMP280;27866;48.146;17.098;2023-08-20T11:21:30;99978.59;;;54.03
42197;BMP280;27866;48.146;17.098;2023-08-20T11:25:42;99983.06;;;54.53
42197;BMP280;27866;48.146;17.098;2023-08-20T11:29:54;99979.88;;;54.48
42197;BMP280;27866;48.146;17.098;2023-08-20T11:34:07;99976.28;;;54.12
42197;BMP280;27866;48.146;17.098;2023-08-20T11:38:24;99967.38;;;54.67
42197;BMP280;27866;48.146;17.098;2023-08-20T11:42:36;99967.97;;;54.90
42197;BMP280;27866;48.146;17.098;2023-08-20T11:46:47;99964.16;;;54.62
42197;BMP280;27866;48.146;17.098;2023-08-20T11:50:59;99953.22;;;54.40
42197;BMP280;27866;48.146;17.098;2023-08-20T11:55:10;99952.59;;;54.18
42197;BMP280;27866;48.146;17.098;2023-08-20T11:59:21;99948.00;;;55.26
42197;BMP280;27866;48.146;17.098;2023-08-20T12:03:33;99947.78;;;54.92
42197;BMP280;27866;48.146;17.098;2023-08-20T12:08:02;99950.66;;;55.09
42197;BMP280;27866;48.146;17.098;2023-08-20T12:12:13;99948.31;;;54.62
42197;BMP280;27866;48.146;17.098;2023-08-20T12:16:24;99943.28;;;55.37
42197;BMP280;27866;48.146;17.098;2023-08-20T12:20:36;99936.16;;;55.43
42197;BMP280;27866;48.146;17.098;2023-08-20T12:24:48;99926.84;;;55.88
42197;BMP280;27866;48.146;17.098;2023-08-20T12:29:03;99930.59;;;55.43
42197;BMP280;27866;48.146;17.098;2023-08-20T12:33:14;99931.41;;;54.84
42197;BMP280;27866;48.146;17.098;2023-08-20T12:37:25;99935.88;;;54.99
42197;BMP280;27866;48.146;17.098;2023-08-20T12:41:36;99920.13;;;54.61
42197;BMP280;27866;48.146;17.098;2023-08-20T12:45:48;99914.69;;;54.77
42197;BMP280;27866;48.146;17.098;2023-08-20T12:49:59;99911.13;;;55.39
42197;BMP280;27866;48.146;17.098;2023-08-20T12:54:10;99914.09;;;55.77
42197;BMP280;27866;48.146;17.098;2023-08-20T12:58:22;99906.53;;;55.01
42197;BMP280;27866;48.146;17.098;2023-08-20T13:02:34;99895.56;;;55.21
42197;BMP280;27866;48.146;17.098;2023-08-20T13:06:45;99890.56;;;54.36
42197;BMP280;27866;48.146;17.098;2023-08-20T13:10:59;99886.97;;;54.88
42197;BMP280;27866;48.146;17.098;2023-08-20T13:15:11;99891.81;;;54.45
42197;BMP280;27866;48.146;17.098;2023-08-20T13:19:23;99885.06;;;53.72
42197;BMP280;27866;48.146;17.098;2023-08-20T13:23:34;99884.44;;;54.20
42197;BMP280;27866;48.146;17.098;2023-08-20T13:27:45;99888.44;;;54.23
42197;BMP280;27866;48.146;17.098;2023-08-20T13:31:56;99897.19;;;53.93
42197;BMP280;27866;48.146;17.098;2023-08-20T13:36:07;99894.84;;;52.81
42197;BMP280;27866;48.146;17.098;2023-08-20T13:40:18;99883.88;;;53.41
42197;BMP280;27866;48.146;17.098;2023-08-20T13:44:30;99884.94;;;53.30
42197;BMP280;27866;48.146;17.098;2023-08-20T13:48:41;99872.81;;;52.87
42197;BMP280;27866;48.146;17.098;2023-08-20T13:52:52;99863.00;;;53.18
42197;BMP280;27866;48.146;17.098;2023-08-20T13:57:04;99877.81;;;52.79
42197;BMP280;27866;48.146;17.098;2023-08-20T14:01:15;99873.66;;;52.66
42197;BMP280;27866;48.146;17.098;2023-08-20T14:05:26;99857.13;;;52.70
42197;BMP280;27866;48.146;17.098;2023-08-20T14:09:39;99851.75;;;52.55
42197;BMP280;27866;48.146;17.098;2023-08-20T14:13:51;99847.59;;;52.67
42197;BMP280;27866;48.146;17.098;2023-08-20T14:18:03;99848.75;;;52.23
42197;BMP280;27866;48.146;17.098;2023-08-20T14:22:14;99845.75;;;51.66
42197;BMP280;27866;48.146;17.098;2023-08-20T14:26:26;99846.97;;;51.50
42197;BMP280;27866;48.146;17.098;2023-08-20T14:30:38;99842.06;;;51.80
42197;BMP280;27866;48.146;17.098;2023-08-20T14:34:50;99839.22;;;51.58
42197;BMP280;27866;48.146;17.098;2023-08-20T14:39:01;99840.06;;;51.22
42197;BMP280;27866;48.146;17.098;2023-08-20T14:43:12;99832.47;;;51.01
42197;BMP280;27866;48.146;17.098;2023-08-20T14:47:24;99829.53;;;50.61
42197;BMP280;27866;48.146;17.098;2023-08-20T14:51:35;99829.03;;;49.95
42197;BMP280;27866;48.146;17.098;2023-08-20T14:55:46;99830.13;;;49.64
42197;BMP280;27866;48.146;17.098;2023-08-20T14:59:58;99828.88;;;49.62
42197;BMP280;27866;48.146;17.098;2023-08-20T15:04:09;99815.44;;;49.34
42197;BMP280;27866;48.146;17.098;2023-08-20T15:08:20;99821.38;;;49.21
42197;BMP280;27866;48.146;17.098;2023-08-20T15:12:35;99820.78;;;48.66
42197;BMP280;27866;48.146;17.098;2023-08-20T15:16:47;99825.88;;;47.74
42197;BMP280;27866;48.146;17.098;2023-08-20T15:20:59;99825.88;;;47.74
42197;BMP280;27866;48.146;17.098;2023-08-20T15:25:10;99812.28;;;45.09
42197;BMP280;27866;48.146;17.098;2023-08-20T15:29:22;99814.75;;;43.72
42197;BMP280;27866;48.146;17.098;2023-08-20T15:33:33;99802.66;;;42.33
42197;BMP280;27866;48.146;17.098;2023-08-20T15:37:45;99798.44;;;41.57
42197;BMP280;27866;48.146;17.098;2023-08-20T15:41:56;99798.47;;;40.32
42197;BMP280;27866;48.146;17.098;2023-08-20T15:46:07;99801.66;;;39.70
42197;BMP280;27866;48.146;17.098;2023-08-20T15:50:18;99803.72;;;39.23
42197;BMP280;27866;48.146;17.098;2023-08-20T15:54:29;99802.28;;;38.98
42197;BMP280;27866;48.146;17.098;2023-08-20T15:58:41;99794.88;;;38.71
42197;BMP280;27866;48.146;17.098;2023-08-20T16:02:52;99789.94;;;38.30
42197;BMP280;27866;48.146;17.098;2023-08-20T16:07:05;99801.16;;;37.90
42197;BMP280;27866;48.146;17.098;2023-08-20T16:11:17;99791.00;;;37.34
42197;BMP280;27866;48.146;17.098;2023-08-20T16:15:29;99802.34;;;37.12
42197;BMP280;27866;48.146;17.098;2023-08-20T16:19:40;99800.16;;;36.85
42197;BMP280;27866;48.146;17.098;2023-08-20T16:23:51;99797.66;;;36.64
42197;BMP280;27866;48.146;17.098;2023-08-20T16:28:03;99801.88;;;36.31
42197;BMP280;27866;48.146;17.098;2023-08-20T16:32:15;99799.91;;;36.12
42197;BMP280;27866;48.146;17.098;2023-08-20T16:36:26;99814.59;;;35.86
42197;BMP280;27866;48.146;17.098;2023-08-20T16:40:37;99805.78;;;35.55
42197;BMP280;27866;48.146;17.098;2023-08-20T16:44:49;99815.25;;;35.27
42197;BMP280;27866;48.146;17.098;2023-08-20T16:49:01;99811.09;;;35.10
42197;BMP280;27866;48.146;17.098;2023-08-20T16:53:15;99815.03;;;34.77
42197;BMP280;27866;48.146;17.098;2023-08-20T16:57:27;99816.41;;;34.54
42197;BMP280;27866;48.146;17.098;2023-08-20T17:01:38;99815.50;;;34.23
42197;BMP280;27866;48.146;17.098;2023-08-20T17:06:01;99815.81;;;33.89
42197;BMP280;27866;48.146;17.098;2023-08-20T17:10:13;99811.56;;;33.57
42197;BMP280;27866;48.146;17.098;2023-08-20T17:14:24;99815.66;;;33.27
42197;BMP280;27866;48.146;17.098;2023-08-20T17:18:35;99813.78;;;32.96
42197;BMP280;27866;48.146;17.098;2023-08-20T17:22:47;99814.50;;;32.75
42197;BMP280;27866;48.146;17.098;2023-08-20T17:26:58;99820.03;;;32.58
42197;BMP280;27866;48.146;17.098;2023-08-20T17:31:09;99822.44;;;32.43
42197;BMP280;27866;48.146;17.098;2023-08-20T17:35:20;99820.75;;;32.27
42197;BMP280;27866;48.146;17.098;2023-08-20T17:39:32;99821.47;;;32.11
42197;BMP280;27866;48.146;17.098;2023-08-20T17:43:43;99828.72;;;31.99
42197;BMP280;27866;48.146;17.098;2023-08-20T17:47:54;99827.09;;;31.87
42197;BMP280;27866;48.146;17.098;2023-08-20T17:52:05;99824.34;;;31.71
42197;BMP280;27866;48.146;17.098;2023-08-20T17:56:17;99833.63;;;31.58
42197;BMP280;27866;48.146;17.098;2023-08-20T18:00:28;99840.28;;;31.44
42197;BMP280;27866;48.146;17.098;2023-08-20T18:04:40;99842.13;;;31.33
42197;BMP280;27866;48.146;17.098;2023-08-20T18:08:52;99846.66;;;31.21
42197;BMP280;27866;48.146;17.098;2023-08-20T18:13:04;99848.00;;;31.12
42197;BMP280;27866;48.146;17.098;2023-08-20T18:17:15;99849.41;;;31.04
42197;BMP280;27866;48.146;17.098;2023-08-20T18:21:26;99865.56;;;30.97
42197;BMP280;27866;48.146;17.098;2023-08-20T18:25:38;99870.66;;;30.88
42197;BMP280;27866;48.146;17.098;2023-08-20T18:29:49;99862.34;;;30.78
42197;BMP280;27866;48.146;17.098;2023-08-20T18:34:00;99873.59;;;30.69
42197;BMP280;27866;48.146;17.098;2023-08-20T18:38:39;99883.16;;;30.59
42197;BMP280;27866;48.146;17.098;2023-08-20T18:42:50;99875.56;;;30.45
42197;BMP280;27866;48.146;17.098;2023-08-20T18:47:02;99891.31;;;30.35
42197;BMP280;27866;48.146;17.098;2023-08-20T18:51:14;99903.72;;;30.30
42197;BMP280;27866;48.146;17.098;2023-08-20T18:55:28;99909.31;;;30.28
42197;BMP280;27866;48.146;17.098;2023-08-20T18:59:39;99903.78;;;30.23
42197;BMP280;27866;48.146;17.098;2023-08-20T19:03:51;99909.81;;;30.19
42197;BMP280;27866;48.146;17.098;2023-08-20T19:08:04;99913.06;;;30.21
42197;BMP280;27866;48.146;17.098;2023-08-20T19:12:15;99910.66;;;30.13
42197;BMP280;27866;48.146;17.098;2023-08-20T19:16:26;99921.66;;;30.06
42197;BMP280;27866;48.146;17.098;2023-08-20T19:20:48;99920.31;;;29.97
42197;BMP280;27866;48.146;17.098;2023-08-20T19:24:59;99930.47;;;29.89
42197;BMP280;27866;48.146;17.098;2023-08-20T19:29:10;99943.53;;;29.79
42197;BMP280;27866;48.146;17.098;2023-08-20T19:33:22;99944.22;;;29.68
42197;BMP280;27866;48.146;17.098;2023-08-20T19:37:33;99950.25;;;29.64
42197;BMP280;27866;48.146;17.098;2023-08-20T19:41:44;99944.91;;;29.58
42197;BMP280;27866;48.146;17.098;2023-08-20T19:45:55;99952.31;;;29.56
42197;BMP280;27866;48.146;17.098;2023-08-20T19:50:07;99950.28;;;29.51
42197;BMP280;27866;48.146;17.098;2023-08-20T19:54:18;99959.59;;;29.49
42197;BMP280;27866;48.146;17.098;2023-08-20T19:58:32;99966.81;;;29.42
42197;BMP280;27866;48.146;17.098;2023-08-20T20:02:46;99961.91;;;29.39
42197;BMP280;27866;48.146;17.098;2023-08-20T20:06:57;99974.47;;;29.33
42197;BMP280;27866;48.146;17.098;2023-08-20T20:11:09;99971.03;;;29.26
42197;BMP280;27866;48.146;17.098;2023-08-20T20:15:20;99972.13;;;29.19
42197;BMP280;27866;48.146;17.098;2023-08-20T20:19:32;99977.03;;;29.15
42197;BMP280;27866;48.146;17.098;2023-08-20T20:23:43;99982.22;;;29.10
42197;BMP280;27866;48.146;17.098;2023-08-20T20:27:55;99976.88;;;29.10
42197;BMP280;27866;48.146;17.098;2023-08-20T20:32:06;99985.31;;;29.07
42197;BMP280;27866;48.146;17.098;2023-08-20T20:36:17;99986.75;;;29.04
42197;BMP280;27866;48.146;17.098;2023-08-20T20:40:29;99999.69;;;29.00
42197;BMP280;27866;48.146;17.098;2023-08-20T20:44:40;99999.75;;;28.94
42197;BMP280;27866;48.146;17.098;2023-08-20T20:48:51;99997.47;;;28.91
42197;BMP280;27866;48.146;17.098;2023-08-20T20:53:02;99992.59;;;28.88
42197;BMP280;27866;48.146;17.098;2023-08-20T20:57:14;99999.16;;;28.86
42197;BMP280;27866;48.146;17.098;2023-08-20T21:01:25;100002.44;;;28.81
42197;BMP280;27866;48.146;17.098;2023-08-20T21:05:42;100003.50;;;28.80
42197;BMP280;27866;48.146;17.098;2023-08-20T21:09:56;100004.94;;;28.77
42197;BMP280;27866;48.146;17.098;2023-08-20T21:14:07;100013.34;;;28.74
42197;BMP280;27866;48.146;17.098;2023-08-20T21:18:18;100007.84;;;28.69
42197;BMP280;27866;48.146;17.098;2023-08-20T21:22:30;100007.69;;;28.64
42197;BMP280;27866;48.146;17.098;2023-08-20T21:26:41;100008.28;;;28.60
42197;BMP280;27866;48.146;17.098;2023-08-20T21:30:52;100017.91;;;28.54
42197;BMP280;27866;48.146;17.098;2023-08-20T21:35:04;100016.50;;;28.52
42197;BMP280;27866;48.146;17.098;2023-08-20T21:39:16;100012.38;;;28.49
42197;BMP280;27866;48.146;17.098;2023-08-20T21:43:27;100011.78;;;28.48
42197;BMP280;27866;48.146;17.098;2023-08-20T21:47:39;100011.16;;;28.46
42197;BMP280;27866;48.146;17.098;2023-08-20T21:51:58;100021.81;;;28.46
42197;BMP280;27866;48.146;17.098;2023-08-20T21:56:09;100018.56;;;28.44
42197;BMP280;27866;48.146;17.098;2023-08-20T22:00:21;100022.25;;;28.43
42197;BMP280;27866;48.146;17.098;2023-08-20T22:04:46;100025.13;;;28.41
42197;BMP280;27866;48.146;17.098;2023-08-20T22:08:57;100024.53;;;28.39
42197;BMP280;27866;48.146;17.098;2023-08-20T22:13:08;100019.38;;;28.38
42197;BMP280;27866;48.146;17.098;2023-08-20T22:17:19;100023.09;;;28.37
42197;BMP280;27866;48.146;17.098;2023-08-20T22:21:30;100020.66;;;28.35
42197;BMP280;27866;48.146;17.098;2023-08-20T22:25:42;100021.66;;;28.34
42197;BMP280;27866;48.146;17.098;2023-08-20T22:29:53;100016.75;;;28.32
42197;BMP280;27866;48.146;17.098;2023-08-20T22:34:04;100021.03;;;28.33
42197;BMP280;27866;48.146;17.098;2023-08-20T22:38:16;100014.28;;;28.30
42197;BMP280;27866;48.146;17.098;2023-08-20T22:42:27;100024.13;;;28.30
42197;BMP280;27866;48.146;17.098;2023-08-20T22:46:38;100019.22;;;28.27
42197;BMP280;27866;48.146;17.098;2023-08-20T22:50:49;100028.84;;;28.28
42197;BMP280;27866;48.146;17.098;2023-08-20T22:55:00;100030.50;;;28.22
42197;BMP280;27866;48.146;17.098;2023-08-20T22:59:12;100019.84;;;28.22
42197;BMP280;27866;48.146;17.098;2023-08-20T23:03:25;100026.81;;;28.30
42197;BMP280;27866;48.146;17.098;2023-08-20T23:07:36;100035.84;;;28.22
42197;BMP280;27866;48.146;17.098;2023-08-20T23:11:48;100022.31;;;28.18
42197;BMP280;27866;48.146;17.098;2023-08-20T23:15:59;100027.63;;;28.18
42197;BMP280;27866;48.146;17.098;2023-08-20T23:20:11;100028.88;;;28.15
42197;BMP280;27866;48.146;17.098;2023-08-20T23:24:22;100024.78;;;28.13
42197;BMP280;27866;48.146;17.098;2023-08-20T23:28:34;100028.47;;;28.12
42197;BMP280;27866;48.146;17.098;2023-08-20T23:32:49;100029.28;;;28.12
42197;BMP280;27866;48.146;17.098;2023-08-20T23:37:04;100028.88;;;28.09
42197;BMP280;27866;48.146;17.098;2023-08-20T23:41:15;100026.22;;;28.09
42197;BMP280;27866;48.146;17.098;2023-08-20T23:45:26;100029.28;;;28.06
42197;BMP280;27866;48.146;17.098;2023-08-20T23:49:38;100025.00;;;28.05